DAUO/ELU METAR and TAF weather

Enter ICAO airport designator
Station Type Date Time Source
DAUO METAR 2018/09/19 11:00 UTC NOAA

DAUO 191100Z 08003KT 9999 FEW030 SCT200 35/16 Q1018


Station Type Date Time Source
DAUO Decoded METAR 2018/09/19 11:00 UTC NOAA

El Oued, Algeria (DAUO) 33-30N 006-07E 63M
Sep 19, 2018 - 07:00 AM EDT / 2018.09.19 1100 UTC
Wind: from the E (080 degrees) at 3 MPH (3 KT):0
Visibility: greater than 7 mile(s):0
Sky conditions: partly cloudy
Temperature: 95 F (35 C)
Heat index: 95.2 F (35.1 C):1
Dew Point: 60 F (16 C)
Relative Humidity: 32%
Pressure (altimeter): 30.06 in. Hg (1018 hPa)
ob: DAUO 191100Z 08003KT 9999 FEW030 SCT200 35/16 Q1018
cycle: 11

Station Type Date Time Source
DAUO TAF 2017/11/09 18:03 UTC NOAA

TAF DAUO 091700Z 0918/1009 28010KT 9999 SCT033 SCT100 PROB30
TEMPO 0918/0924 28015G25KT 5000 -TSRA FEW036CB


Example: see airport list